Time;durP1;ratioP1;P1;durP2;ratioP2;P2;SDS_P1;SDS_P2;PMS_P1;PMS_P2;Temp;Humidity;BMP_temperature;BMP_pressure;BME280_temperature;BME280_humidity;BME280_pressure;Samples;Min_cycle;Max_cycle;Signal;HPM_P1;HPM_P2
2020/12/01 00:01:27;;;;;;;72.50;33.28;;;;;;;0.35;78.16;101335.00;1706127;81;27706;-80
2020/12/01 00:03:55;;;;;;;80.20;36.17;;;;;;;0.34;78.18;101342.55;1742968;81;26166;-80
2020/12/01 00:06:22;;;;;;;79.47;36.35;;;;;;;0.33;78.24;101338.22;1718460;81;25363;-80
2020/12/01 00:08:49;;;;;;;86.40;39.23;;;;;;;0.33;78.31;101340.38;1718123;81;25945;-80
2020/12/01 00:11:17;;;;;;;81.55;37.78;;;;;;;0.33;78.26;101346.13;1692128;81;25767;-80
2020/12/01 00:13:46;;;;;;;83.92;39.27;;;;;;;0.32;78.27;101346.59;1739814;81;27533;-80
2020/12/01 00:16:14;;;;;;;83.65;39.30;;;;;;;0.31;78.26;101341.43;1745957;80;25974;-80
2020/12/01 00:18:42;;;;;;;78.65;34.75;;;;;;;0.28;78.26;101345.11;1716171;81;25638;-80
2020/12/01 00:21:13;;;;;;;85.17;37.90;;;;;;;0.24;78.21;101344.95;1714476;81;25669;-80
2020/12/01 00:23:41;;;;;;;83.80;37.20;;;;;;;0.25;78.31;101344.48;1727714;81;25883;-80
2020/12/01 00:26:08;;;;;;;82.92;38.48;;;;;;;0.24;78.25;101342.78;1712755;81;27695;-80
2020/12/01 00:28:36;;;;;;;85.05;38.48;;;;;;;0.23;78.19;101342.42;1718554;81;26439;-80
2020/12/01 00:31:03;;;;;;;80.03;36.45;;;;;;;0.23;78.19;101342.42;1711228;81;25815;-80
2020/12/01 00:33:31;;;;;;;89.58;38.78;;;;;;;0.24;78.18;101346.73;1691047;81;25788;-80
2020/12/01 00:35:58;;;;;;;85.57;37.55;;;;;;;0.23;78.13;101347.70;1716876;80;25932;-80
2020/12/01 00:38:25;;;;;;;88.03;39.53;;;;;;;0.20;78.07;101344.78;1717460;81;27923;-80
2020/12/01 00:40:53;;;;;;;86.05;39.15;;;;;;;0.21;78.12;101345.64;1717278;81;25797;-80
2020/12/01 00:43:20;;;;;;;88.52;40.78;;;;;;;0.21;78.01;101341.69;1737629;80;25784;-81
2020/12/01 00:45:48;;;;;;;85.45;36.10;;;;;;;0.20;77.97;101346.10;1723783;81;25811;-80
2020/12/01 00:48:16;;;;;;;86.50;38.75;;;;;;;0.18;77.92;101343.20;1754523;80;26127;-79
2020/12/01 00:50:44;;;;;;;81.42;38.08;;;;;;;0.15;77.96;101346.88;1738380;81;27600;-80
2020/12/01 00:53:13;;;;;;;80.77;37.17;;;;;;;0.10;77.99;101338.45;1729614;82;25922;-81
2020/12/01 00:55:41;;;;;;;89.03;39.25;;;;;;;0.03;78.16;101331.89;1709381;81;25840;-81
2020/12/01 00:58:09;;;;;;;88.62;36.88;;;;;;;0.00;78.24;101334.75;1710499;81;25949;-80
2020/12/01 01:00:37;;;;;;;95.30;39.27;;;;;;;-0.03;78.35;101335.79;1719145;81;26410;-80
2020/12/01 01:03:10;;;;;;;85.97;37.53;;;;;;;-0.06;78.46;101332.50;1738231;81;27537;-80
2020/12/01 01:05:37;;;;;;;95.70;40.05;;;;;;;-0.11;78.52;101326.71;1735417;81;25823;-80
2020/12/01 01:08:05;;;;;;;90.80;39.78;;;;;;;-0.15;78.56;101326.55;1734729;80;25420;-79
2020/12/01 01:10:33;;;;;;;93.35;42.98;;;;;;;-0.22;78.52;101312.94;1755733;80;25803;-80
2020/12/01 01:13:02;;;;;;;94.35;40.75;;;;;;;-0.25;78.59;101321.02;1763621;80;25882;-79
2020/12/01 01:15:33;;;;;;;92.67;40.20;;;;;;;-0.25;78.85;101321.02;1739762;80;28671;-80
2020/12/01 01:18:03;;;;;;;88.33;41.25;;;;;;;-0.26;78.96;101324.62;1729246;80;25419;-80
2020/12/01 01:20:31;;;;;;;93.87;42.10;;;;;;;-0.28;79.01;101321.20;1738897;80;25384;-80
2020/12/01 01:22:59;;;;;;;91.15;41.13;;;;;;;-0.28;79.08;101323.84;1759340;80;25967;-80
2020/12/01 01:25:26;;;;;;;91.12;40.73;;;;;;;-0.26;79.14;101318.03;1738607;80;25817;-80
2020/12/01 01:27:53;;;;;;;96.35;43.92;;;;;;;-0.26;79.15;101318.03;1734052;80;28100;-81
2020/12/01 01:30:23;;;;;;;95.35;41.23;;;;;;;-0.27;79.18;101313.70;1758486;80;26857;-80
2020/12/01 01:32:51;;;;;;;92.00;41.63;;;;;;;-0.29;79.15;101312.11;1747739;80;25824;-80
2020/12/01 01:35:19;;;;;;;102.92;43.92;;;;;;;-0.30;79.16;101304.67;1737830;80;25860;-80
2020/12/01 01:37:47;;;;;;;96.40;45.08;;;;;;;-0.30;79.17;101313.89;1737538;80;25914;-80
2020/12/01 01:40:19;;;;;;;92.10;42.27;;;;;;;-0.30;79.20;101308.63;1714608;81;27736;-80
2020/12/01 01:42:47;;;;;;;96.37;43.95;;;;;;;-0.29;79.24;101314.27;1734936;81;25849;-80
2020/12/01 01:45:14;;;;;;;91.87;42.67;;;;;;;-0.28;79.39;101306.73;1715181;81;25889;-80
2020/12/01 01:47:45;;;;;;;102.32;45.38;;;;;;;-0.31;79.32;101304.32;1711844;81;26436;-80
2020/12/01 01:50:21;;;;;;;96.28;42.40;;;;;;;-0.32;79.49;101297.85;1707737;81;25818;-79
2020/12/01 01:52:50;;;;;;;100.12;42.43;;;;;;;-0.36;79.50;101307.71;1702036;81;27546;-79
2020/12/01 01:55:27;;;;;;;94.52;40.85;;;;;;;-0.38;79.78;101295.13;1738550;81;25753;-80
2020/12/01 01:58:00;;;;;;;103.53;45.55;;;;;;;-0.39;79.99;101296.09;1720830;81;25872;-80
2020/12/01 02:03:37;;;;;;;98.52;45.12;;;;;;;-0.36;80.35;101289.75;1719469;81;26204;-81
2020/12/01 02:06:13;;;;;;;99.40;43.15;;;;;;;-0.40;80.50;101283.86;1740390;81;27611;-80
2020/12/01 02:08:59;;;;;;;101.15;43.23;;;;;;;-0.35;80.66;101280.93;1803183;79;25634;-80
2020/12/01 02:11:30;;;;;;;98.15;41.63;;;;;;;-0.39;80.84;101281.61;1747513;80;25845;-80
2020/12/01 02:14:10;;;;;;;;;;;;;;;-0.36;80.88;101280.55;1777061;80;27517;-80
2020/12/01 02:16:42;;;;;;;92.78;39.25;;;;;;;-0.35;81.07;101279.61;1765231;80;25811;-80
2020/12/01 02:19:14;;;;;;;94.90;41.10;;;;;;;-0.36;81.17;101277.91;1712147;81;25852;-80
2020/12/01 02:21:43;;;;;;;98.92;41.40;;;;;;;-0.34;81.23;101279.50;1728169;81;25815;-80
2020/12/01 02:24:21;;;;;;;100.05;42.83;;;;;;;-0.29;81.29;101277.89;1718687;81;25913;-80
2020/12/01 02:26:54;;;;;;;94.35;41.88;;;;;;;-0.27;81.35;101274.68;1751669;80;27469;-80
2020/12/01 02:29:32;;;;;;;98.17;41.60;;;;;;;-0.24;81.41;101276.66;1696393;81;25942;-81
2020/12/01 02:32:00;;;;;;;104.07;43.63;;;;;;;-0.17;81.41;101279.73;1746360;81;26343;-80
2020/12/01 02:34:35;;;;;;;106.17;44.73;;;;;;;-0.12;81.46;101277.61;1687307;81;26106;-80
2020/12/01 02:37:05;;;;;;;97.37;42.98;;;;;;;-0.04;81.41;101272.20;1710962;81;25909;-80
2020/12/01 02:39:32;;;;;;;100.47;47.55;;;;;;;0.05;81.51;101272.52;1704603;80;28439;-80
2020/12/01 02:42:03;;;;;;;95.80;45.50;;;;;;;0.10;81.37;101270.44;1720746;81;25638;-79
2020/12/01 02:44:30;;;;;;;95.25;42.53;;;;;;;0.06;81.19;101269.81;1712496;81;25807;-80
2020/12/01 02:47:02;;;;;;;97.62;44.90;;;;;;;0.05;81.15;101264.63;1715900;81;25836;-80
2020/12/01 02:49:30;;;;;;;96.85;41.13;;;;;;;0.04;81.12;101263.80;1745757;81;25689;-79
2020/12/01 02:51:57;;;;;;;89.40;41.65;;;;;;;0.00;81.02;101263.15;1700349;81;27104;-80
2020/12/01 02:54:25;;;;;;;97.30;41.63;;;;;;;0.04;81.16;101268.22;1708609;81;25669;-79
2020/12/01 02:56:52;;;;;;;94.92;42.95;;;;;;;0.02;81.04;101256.48;1687285;81;26478;-80
2020/12/01 02:59:20;;;;;;;90.38;38.75;;;;;;;0.00;81.24;101263.65;1704893;81;26265;-80
2020/12/01 03:01:47;;;;;;;89.50;39.92;;;;;;;0.00;81.24;101263.65;1710235;81;25966;-80
2020/12/01 03:04:15;;;;;;;86.57;40.05;;;;;;;-0.01;81.01;101270.70;1719244;81;27744;-80
2020/12/01 03:06:42;;;;;;;86.47;37.70;;;;;;;0.03;81.08;101259.94;1693785;80;26427;-80
2020/12/01 03:09:13;;;;;;;88.22;39.13;;;;;;;0.05;81.12;101264.16;1719991;81;25793;-80
2020/12/01 03:11:42;;;;;;;92.08;41.35;;;;;;;0.03;80.98;101259.47;1721227;81;26196;-79
2020/12/01 03:14:10;;;;;;;95.53;40.60;;;;;;;0.04;81.03;101261.17;1685202;81;25873;-80
2020/12/01 03:16:37;;;;;;;97.08;43.75;;;;;;;0.08;81.03;101261.80;1707959;81;26959;-80
2020/12/01 03:19:04;;;;;;;92.97;40.85;;;;;;;0.13;80.92;101264.47;1701477;83;26009;-80
2020/12/01 03:21:32;;;;;;;104.25;46.13;;;;;;;0.13;80.77;101257.89;1719403;81;26517;-80
2020/12/01 03:23:59;;;;;;;93.50;41.13;;;;;;;0.16;80.80;101259.48;1716552;82;26144;-80
2020/12/01 03:26:27;;;;;;;92.15;41.75;;;;;;;0.16;80.54;101258.16;1740101;81;25358;-80
2020/12/01 03:28:54;;;;;;;89.07;42.17;;;;;;;0.17;80.51;101248.01;1745315;81;27534;-81
2020/12/01 03:31:21;;;;;;;92.27;43.35;;;;;;;0.16;80.26;101247.16;1703756;82;25845;-81
2020/12/01 03:33:50;;;;;;;89.50;41.58;;;;;;;0.17;80.33;101247.51;1722950;81;26610;-80
2020/12/01 03:36:20;;;;;;;90.40;42.23;;;;;;;0.22;80.32;101252.00;1718221;81;25862;-80
2020/12/01 03:38:48;;;;;;;91.10;41.17;;;;;;;0.23;80.15;101251.07;1714570;81;25895;-80
2020/12/01 03:41:16;;;;;;;93.70;41.25;;;;;;;0.25;80.09;101247.00;1707479;81;27324;-80
2020/12/01 03:43:43;;;;;;;97.22;43.58;;;;;;;0.28;80.04;101251.58;1696858;81;26666;-80
2020/12/01 03:46:11;;;;;;;107.63;48.23;;;;;;;0.32;80.03;101246.46;1715605;81;25879;-79
2020/12/01 03:48:38;;;;;;;100.10;46.35;;;;;;;0.38;79.68;101238.62;1734246;81;25846;-80
2020/12/01 03:51:05;;;;;;;104.75;46.33;;;;;;;0.37;79.58;101235.61;1715543;82;26441;-80
2020/12/01 03:53:33;;;;;;;99.80;43.63;;;;;;;0.42;79.59;101242.27;1679965;81;27843;-79
2020/12/01 03:56:00;;;;;;;104.45;43.08;;;;;;;0.43;79.52;101237.34;1712350;81;26097;-80
2020/12/01 03:58:27;;;;;;;97.10;42.67;;;;;;;0.44;79.32;101244.78;1704193;82;25957;-79
2020/12/01 04:00:55;;;;;;;82.33;39.75;;;;;;;0.41;79.18;101240.56;1709559;82;25847;-80
2020/12/01 04:03:22;;;;;;;96.80;43.90;;;;;;;0.38;79.03;101241.27;1713797;82;25878;-80
2020/12/01 04:05:50;;;;;;;103.40;46.08;;;;;;;0.40;79.28;101240.67;1699810;81;28501;-80
2020/12/01 04:08:17;;;;;;;102.97;45.40;;;;;;;0.41;79.28;101241.88;1715329;81;25858;-80
2020/12/01 04:10:45;;;;;;;92.92;44.03;;;;;;;0.36;79.19;101238.73;1726109;81;25704;-80
2020/12/01 04:13:13;;;;;;;99.13;45.25;;;;;;;0.40;79.07;101239.36;1703763;81;25372;-80
2020/12/01 04:15:40;;;;;;;102.75;46.85;;;;;;;0.41;79.06;101240.56;1707658;81;25775;-80
2020/12/01 04:18:08;;;;;;;109.15;49.90;;;;;;;0.41;79.15;101242.34;1724594;81;28370;-80
2020/12/01 04:20:35;;;;;;;104.97;45.23;;;;;;;0.37;79.09;101241.73;1726429;81;25924;-80
2020/12/01 04:23:03;;;;;;;104.90;45.33;;;;;;;0.28;78.72;101242.85;1701915;81;25879;-80
2020/12/01 04:25:31;;;;;;;112.52;50.67;;;;;;;0.27;79.30;101234.10;1724369;81;25809;-79
2020/12/01 04:27:58;;;;;;;106.07;48.68;;;;;;;0.28;78.98;101240.22;1727223;81;26036;-80
2020/12/01 04:30:26;;;;;;;106.70;49.03;;;;;;;0.24;78.93;101235.61;1720813;81;26997;-80
2020/12/01 04:32:54;;;;;;;109.50;48.83;;;;;;;0.14;78.99;101220.55;1728530;81;26402;-81
2020/12/01 04:35:24;;;;;;;110.42;48.40;;;;;;;0.11;78.98;101234.77;1716181;81;25792;-80
2020/12/01 04:37:54;;;;;;;104.47;47.83;;;;;;;0.05;79.07;101223.80;1694467;81;25746;-80
2020/12/01 04:40:25;;;;;;;123.00;51.02;;;;;;;0.12;79.10;101233.83;1720383;81;26007;-80
2020/12/01 04:42:58;;;;;;;120.65;53.20;;;;;;;0.09;78.91;101228.76;1709506;81;27534;-80
2020/12/01 04:45:26;;;;;;;120.85;53.38;;;;;;;0.00;79.03;101226.28;1749074;81;25803;-80
2020/12/01 04:48:18;;;;;;;101.70;48.83;;;;;;;-0.02;79.15;101228.17;1717308;81;25668;-80
2020/12/01 04:50:51;;;;;;;;;;;;;;;0.01;79.20;101225.81;1733883;81;27201;-80
2020/12/01 04:54:15;;;;;;;127.42;53.28;;;;;;;-0.01;79.13;101223.30;1727393;81;25701;-80
2020/12/01 04:56:54;;;;;;;111.62;52.15;;;;;;;0.03;79.44;101227.02;1746177;81;27547;-80
2020/12/01 05:00:05;;;;;;;113.77;51.28;;;;;;;0.02;79.46;101220.93;1772650;80;25820;-80
2020/12/01 05:03:02;;;;;;;114.40;52.15;;;;;;;0.03;79.12;101223.06;1756464;81;25783;-80
2020/12/01 05:08:42;;;;;;;122.92;53.55;;;;;;;-0.01;79.26;101219.34;1738811;81;25818;-80
2020/12/01 05:11:34;;;;;;;118.45;51.65;;;;;;;0.00;79.35;101224.14;1737736;82;27533;-80
2020/12/01 05:14:16;;;;;;;114.42;49.83;;;;;;;-0.02;79.19;101224.69;1714165;82;25765;-80
2020/12/01 05:17:14;;;;;;;127.17;55.25;;;;;;;-0.03;79.20;101224.34;1715142;82;26364;-80
2020/12/01 05:19:47;;;;;;;123.67;57.15;;;;;;;-0.03;79.26;101220.39;1736594;82;25863;-80
2020/12/01 05:22:20;;;;;;;137.50;58.28;;;;;;;-0.01;79.17;101223.76;1694238;84;25815;-80
2020/12/01 05:24:53;;;;;;;137.20;60.70;;;;;;;-0.07;79.16;101218.45;1642867;83;27596;-80
2020/12/01 05:27:34;;;;;;;142.93;61.90;;;;;;;-0.04;79.19;101215.59;1700931;82;25808;-80
2020/12/01 05:30:18;;;;;;;;;;;;;;;0.00;79.06;101217.56;1633336;85;25853;-80
2020/12/01 05:33:20;;;;;;;120.25;53.58;;;;;;;0.02;79.08;101225.34;1672028;84;26037;-80
2020/12/01 05:36:16;;;;;;;120.85;54.30;;;;;;;-0.01;79.03;101228.56;1680231;85;25791;-80
2020/12/01 05:38:59;;;;;;;122.47;55.70;;;;;;;-0.01;79.06;101225.93;1634216;85;27619;-80
2020/12/01 05:41:38;;;;;;;117.77;52.85;;;;;;;-0.05;78.94;101224.45;1658355;85;26482;-81
2020/12/01 05:44:20;;;;;;;121.80;54.13;;;;;;;-0.05;78.94;101224.45;1671817;85;26168;-80
2020/12/01 05:46:58;;;;;;;116.95;53.78;;;;;;;-0.09;78.82;101225.61;1683794;85;25833;-80
2020/12/01 05:49:48;;;;;;;129.40;57.98;;;;;;;-0.08;78.84;101225.11;1702424;83;25820;-80
2020/12/01 05:52:33;;;;;;;126.37;53.57;;;;;;;-0.10;78.75;101224.38;1683733;84;28299;-80
2020/12/01 05:55:24;;;;;;;122.17;53.85;;;;;;;-0.09;78.67;101224.30;1682178;83;25402;-81
2020/12/01 05:58:06;;;;;;;;;;;;;;;-0.07;78.70;101232.93;1664439;85;25868;-79
2020/12/01 06:00:39;;;;;;;116.67;53.52;;;;;;;-0.05;78.51;101227.55;1652725;85;25787;-80
2020/12/01 06:03:24;;;;;;;131.43;56.90;;;;;;;-0.13;78.70;101226.73;1680060;84;26404;-80
2020/12/01 06:05:54;;;;;;;118.30;53.15;;;;;;;-0.17;78.52;101231.02;1641079;84;27639;-80
2020/12/01 06:08:53;;;;;;;130.70;54.77;;;;;;;-0.18;78.71;101228.86;1657833;85;33271;-80
2020/12/01 06:11:50;;;;;;;108.07;49.25;;;;;;;-0.20;78.50;101235.16;1663084;85;25786;-80
2020/12/01 06:14:46;;;;;;;119.60;54.27;;;;;;;-0.19;78.62;101227.63;1661117;85;25755;-80
2020/12/01 06:17:40;;;;;;;114.80;53.75;;;;;;;-0.18;78.53;101234.13;1640632;85;25858;-82
2020/12/01 06:20:40;;;;;;;123.50;54.50;;;;;;;-0.17;78.68;101237.60;1617205;85;27623;-80
2020/12/01 06:23:44;;;;;;;118.02;54.63;;;;;;;-0.14;78.31;101236.91;1649117;85;25951;-80
2020/12/01 06:26:52;;;;;;;126.20;56.23;;;;;;;-0.16;78.39;101246.70;1652727;85;25898;-80
2020/12/01 06:30:17;;;;;;;110.28;50.95;;;;;;;-0.18;78.31;101249.06;1689291;83;25909;-81
2020/12/01 06:33:01;;;;;;;128.82;52.40;;;;;;;-0.19;78.41;101246.05;1648967;85;26046;-80
2020/12/01 06:35:55;;;;;;;112.10;54.75;;;;;;;-0.22;78.24;101247.59;1670503;84;27089;-80
2020/12/01 06:38:48;;;;;;;120.00;54.83;;;;;;;-0.22;78.62;101244.48;1664090;85;26660;-80
2020/12/01 06:41:20;;;;;;;119.90;54.20;;;;;;;-0.25;78.37;101241.20;1643137;85;25823;-80
2020/12/01 06:43:57;;;;;;;126.15;56.63;;;;;;;-0.23;78.52;101239.30;1655115;84;26251;-80
2020/12/01 06:46:41;;;;;;;120.20;55.05;;;;;;;-0.23;78.33;101248.05;1695548;84;25938;-79
2020/12/01 06:49:14;;;;;;;118.55;54.18;;;;;;;-0.24;78.12;101244.22;1666820;85;27546;-79
2020/12/01 06:51:47;;;;;;;107.07;48.02;;;;;;;-0.25;78.34;101249.95;1638089;85;25530;-80
2020/12/01 06:54:16;;;;;;;100.82;46.70;;;;;;;-0.25;78.19;101269.69;1639574;85;25965;-80
2020/12/01 06:57:06;;;;;;;107.00;49.15;;;;;;;-0.34;78.25;101257.63;1661402;85;25758;-80
2020/12/01 06:59:39;;;;;;;107.05;45.90;;;;;;;-0.35;78.20;101260.72;1681051;83;25825;-81
2020/12/01 07:02:24;;;;;;;104.03;48.02;;;;;;;-0.36;78.33;101266.06;1679458;85;27565;-79
2020/12/01 07:05:11;;;;;;;111.45;53.00;;;;;;;-0.41;78.52;101258.50;1657234;83;26243;-80
2020/12/01 07:10:29;;;;;;;107.63;46.68;;;;;;;-0.35;78.50;101270.40;1831106;77;25816;-80
2020/12/01 07:13:22;;;;;;;107.22;48.52;;;;;;;-0.43;78.55;101263.02;1778311;78;25767;-80
2020/12/01 07:15:52;;;;;;;107.00;48.23;;;;;;;-0.47;78.66;101264.64;1797956;78;28428;-80
2020/12/01 07:18:31;;;;;;;95.40;44.10;;;;;;;-0.43;78.89;101267.44;1695586;80;26299;-81
2020/12/01 07:21:17;;;;;;;94.07;44.13;;;;;;;-0.47;78.70;101261.52;1711888;80;25631;-80
2020/12/01 07:24:16;;;;;;;103.62;47.08;;;;;;;-0.43;78.98;101267.44;1743288;80;25883;-80
2020/12/01 07:26:51;;;;;;;97.78;45.75;;;;;;;-0.43;78.90;101266.12;1736028;81;25775;-80
2020/12/01 07:29:53;;;;;;;96.30;45.52;;;;;;;-0.42;79.09;101267.80;1772906;80;28485;-82
2020/12/01 07:32:25;;;;;;;98.60;47.95;;;;;;;-0.35;79.05;101269.09;1729897;81;26136;-80
2020/12/01 07:35:07;;;;;;;92.65;43.83;;;;;;;-0.36;79.13;101266.06;1734626;81;26414;-81
2020/12/01 07:37:56;;;;;;;98.22;46.83;;;;;;;-0.21;78.82;101272.95;1782108;79;25983;-80
2020/12/01 07:40:47;;;;;;;93.92;45.38;;;;;;;-0.29;78.95;101276.57;1704187;81;26488;-80
2020/12/01 07:43:17;;;;;;;;;;;;;;;-0.26;79.02;101274.60;1765707;80;27522;-80
2020/12/01 07:45:45;;;;;;;100.53;46.25;;;;;;;-0.28;78.94;101278.27;1732718;79;26081;-80
2020/12/01 07:48:20;;;;;;;94.15;47.53;;;;;;;-0.29;78.98;101276.57;1731945;80;25847;-80
2020/12/01 07:50:47;;;;;;;102.62;49.27;;;;;;;-0.25;79.18;101278.91;1733565;80;25835;-80
2020/12/01 07:53:20;;;;;;;101.40;45.63;;;;;;;-0.15;79.21;101278.66;1696418;80;25735;-80
2020/12/01 07:55:58;;;;;;;103.22;49.93;;;;;;;-0.12;78.89;101281.09;1770834;80;27542;-80
2020/12/01 07:58:29;;;;;;;94.55;45.08;;;;;;;-0.15;78.87;101286.55;1745456;80;25819;-80
2020/12/01 08:01:01;;;;;;;99.75;46.28;;;;;;;-0.14;78.86;101300.11;1746107;80;32629;-80
2020/12/01 08:03:38;;;;;;;100.33;49.60;;;;;;;-0.14;78.92;101292.67;1765839;80;25816;-80
2020/12/01 08:06:11;;;;;;;87.35;41.95;;;;;;;-0.08;79.05;101300.16;1741052;80;25810;-80
2020/12/01 08:08:43;;;;;;;93.52;46.35;;;;;;;-0.08;78.92;101292.26;1736508;80;28536;-79
2020/12/01 08:11:14;;;;;;;101.38;47.98;;;;;;;-0.07;78.84;101297.45;1751247;80;25793;-79
2020/12/01 08:13:43;;;;;;;92.47;45.12;;;;;;;-0.03;78.91;101296.76;1716590;81;25997;-80
2020/12/01 08:16:24;;;;;;;86.25;43.75;;;;;;;-0.01;79.06;101297.03;1693885;81;26217;-79
2020/12/01 08:18:54;;;;;;;97.30;47.62;;;;;;;0.05;79.27;101303.66;1745611;81;33063;-80
2020/12/01 08:21:26;;;;;;;92.30;46.85;;;;;;;0.18;79.32;101301.05;1721546;81;28114;-81
2020/12/01 08:23:57;;;;;;;95.67;46.92;;;;;;;0.26;79.30;101298.73;1699846;81;26145;-80
2020/12/01 08:26:33;;;;;;;96.45;44.13;;;;;;;0.31;79.27;101306.71;1749379;81;25806;-80
2020/12/01 08:29:21;;;;;;;96.60;48.25;;;;;;;0.37;79.06;101306.75;1725783;80;25893;-80
2020/12/01 08:32:02;;;;;;;89.65;45.85;;;;;;;0.40;78.81;101311.83;1760359;80;25902;-80
2020/12/01 08:34:49;;;;;;;91.32;46.02;;;;;;;0.39;78.80;101307.48;1735119;80;27447;-81
2020/12/01 08:37:46;;;;;;;111.40;59.15;;;;;;;0.43;78.90;101308.50;1749549;80;25989;-81
2020/12/01 08:40:51;;;;;;;106.72;56.95;;;;;;;0.52;78.77;101310.51;1863162;76;25343;-80
2020/12/01 08:43:33;;;;;;;94.80;48.78;;;;;;;0.52;78.61;101313.61;1770664;77;26638;-80
2020/12/01 08:46:20;;;;;;;116.03;59.13;;;;;;;0.51;78.60;101314.08;1834908;77;27623;-81
2020/12/01 08:49:07;;;;;;;91.57;44.55;;;;;;;0.57;78.61;101316.32;1839471;77;25836;-80
2020/12/01 08:51:54;;;;;;;94.45;47.93;;;;;;;0.58;78.40;101315.36;1775666;77;25773;-80
2020/12/01 08:54:34;;;;;;;94.17;47.23;;;;;;;0.70;78.33;101313.67;1790913;79;25679;-80
2020/12/01 08:57:13;;;;;;;92.55;46.18;;;;;;;0.66;78.49;101317.48;1737407;80;25473;-80
2020/12/01 08:59:46;;;;;;;94.40;48.73;;;;;;;0.74;78.65;101321.73;1766978;80;28630;-80
2020/12/01 09:02:18;;;;;;;94.07;49.77;;;;;;;0.81;78.28;101324.80;1725818;80;26557;-80
2020/12/01 09:04:45;;;;;;;299.45;150.30;;;;;;;0.87;78.39;101327.00;1700694;80;26526;-80
2020/12/01 09:07:22;;;;;;;281.30;132.80;;;;;;;0.91;78.35;101324.04;1718995;80;26004;-80
2020/12/01 09:09:52;;;;;;;117.90;57.38;;;;;;;0.94;78.29;101322.48;1765918;80;25933;-80
2020/12/01 09:15:37;;;;;;;101.42;50.78;;;;;;;1.12;77.65;101325.63;1791429;79;26370;-80
2020/12/01 09:18:11;;;;;;;90.92;49.30;;;;;;;1.08;77.85;101322.38;1686543;82;25857;-80
2020/12/01 09:23:17;;;;;;;141.28;83.65;;;;;;;1.10;77.98;101324.43;1700976;83;25835;-80
2020/12/01 09:25:47;;;;;;;123.38;83.40;;;;;;;1.14;77.68;101322.41;1658340;85;25727;-80
2020/12/01 09:28:25;;;;;;;91.00;50.45;;;;;;;1.16;77.77;101322.67;1660690;85;25825;-80
2020/12/01 09:30:53;;;;;;;121.65;75.00;;;;;;;1.21;77.78;101322.34;1683310;85;25878;-80
2020/12/01 09:33:23;;;;;;;99.22;54.13;;;;;;;1.23;77.72;101328.35;1705002;83;28407;-80
2020/12/01 09:35:50;;;;;;;92.50;47.13;;;;;;;1.24;77.75;101330.05;1663669;85;25829;-81
2020/12/01 09:38:18;;;;;;;109.03;61.50;;;;;;;1.29;77.73;101330.55;1651486;85;25934;-80
2020/12/01 09:40:50;;;;;;;102.92;58.83;;;;;;;1.31;77.34;101327.32;1686154;85;25851;-80
2020/12/01 09:43:28;;;;;;;95.50;50.60;;;;;;;1.33;77.38;101328.91;1646320;82;25813;-80
2020/12/01 09:45:51;;;;;;;164.72;97.47;;;;;;;1.38;77.55;101331.22;1700981;82;28508;-80
2020/12/01 09:48:34;;;;;;;100.45;53.83;;;;;;;1.41;77.52;101323.91;1670690;83;25850;-80
2020/12/01 09:51:00;;;;;;;;;;;;;;;1.44;77.24;101328.13;1664123;83;26324;-80
2020/12/01 09:53:36;;;;;;;129.15;66.85;;;;;;;1.46;77.25;101324.90;1628279;86;25866;-80
2020/12/01 09:56:05;;;;;;;108.67;60.00;;;;;;;1.49;77.43;101326.02;1705863;83;25864;-80
2020/12/01 10:36:23;;;;;;;135.55;85.25;;;;;;;1.96;76.69;101304.87;1704383;83;25867;-80
2020/12/01 10:38:52;;;;;;;96.47;50.33;;;;;;;1.99;76.75;101310.41;1700689;83;26123;-80
2020/12/01 10:41:30;;;;;;;98.75;54.30;;;;;;;2.02;76.62;101306.20;1646020;83;25967;-80
2020/12/01 10:43:57;;;;;;;113.08;72.95;;;;;;;2.02;76.56;101312.81;1661314;83;27541;-80
2020/12/01 10:46:25;;;;;;;114.47;75.08;;;;;;;2.06;76.74;101307.66;1659137;84;25911;-81
2020/12/01 10:48:52;;;;;;;121.50;70.15;;;;;;;2.09;76.66;101303.47;1714385;82;25850;-80
2020/12/01 10:51:20;;;;;;;82.67;46.40;;;;;;;2.11;76.61;101306.84;1657840;83;25788;-80
2020/12/01 10:53:47;;;;;;;73.40;41.13;;;;;;;2.14;76.37;101306.12;1700581;81;25854;-80
2020/12/01 10:56:15;;;;;;;127.02;73.02;;;;;;;2.17;75.89;101311.66;1701789;83;27401;-80
2020/12/01 10:58:42;;;;;;;83.10;45.55;;;;;;;2.19;76.12;101311.91;1707722;83;25689;-80
2020/12/01 11:01:09;;;;;;;88.47;45.10;;;;;;;2.23;76.25;101306.75;1676349;81;25894;-81
2020/12/01 11:03:37;;;;;;;86.67;46.90;;;;;;;2.27;76.17;101305.55;1689021;83;26510;-80
2020/12/01 11:06:04;;;;;;;86.37;43.50;;;;;;;2.28;75.87;101310.38;1678269;83;26516;-80
2020/12/01 11:08:31;;;;;;;88.65;46.90;;;;;;;2.24;75.80;101307.13;1732656;81;28502;-81
2020/12/01 11:10:59;;;;;;;84.75;41.92;;;;;;;2.24;75.79;101314.21;1656574;83;25933;-81
2020/12/01 11:13:26;;;;;;;87.15;46.05;;;;;;;2.23;75.83;101313.83;1701315;81;25827;-80
2020/12/01 11:15:53;;;;;;;73.50;39.80;;;;;;;2.25;75.87;101313.23;1701491;81;26016;-81
2020/12/01 11:18:21;;;;;;;90.35;48.08;;;;;;;2.29;76.02;101314.69;1723342;81;25903;-81
2020/12/01 11:20:48;;;;;;;83.07;40.17;;;;;;;2.32;76.05;101316.63;1664072;83;27718;-81
2020/12/01 11:23:16;;;;;;;83.92;41.92;;;;;;;2.33;75.73;101313.52;1672037;82;25791;-80
2020/12/01 11:25:43;;;;;;;84.15;45.48;;;;;;;2.29;75.85;101319.97;1686697;82;25711;-80
2020/12/01 11:28:10;;;;;;;74.70;37.88;;;;;;;2.31;75.83;101316.73;1687455;82;26279;-80
2020/12/01 11:30:38;;;;;;;101.55;63.17;;;;;;;2.32;75.63;101315.78;1657255;84;25679;-80
2020/12/01 11:33:05;;;;;;;89.85;46.45;;;;;;;2.33;75.43;101314.84;1664409;84;27568;-81
2020/12/01 11:35:32;;;;;;;93.22;52.90;;;;;;;2.35;75.52;101324.81;1688341;82;25924;-81
2020/12/01 11:38:00;;;;;;;91.32;51.10;;;;;;;2.38;75.63;101332.50;1689407;82;25854;-80
2020/12/01 11:40:27;;;;;;;85.10;47.85;;;;;;;2.44;75.80;101317.98;1652905;84;25844;-80
2020/12/01 11:42:54;;;;;;;76.50;38.65;;;;;;;2.50;75.54;101326.30;1638338;83;25910;-80
2020/12/01 11:45:22;;;;;;;75.83;44.27;;;;;;;2.48;75.43;101325.54;1687616;82;28282;-81
2020/12/01 11:47:49;;;;;;;70.28;38.08;;;;;;;2.47;75.29;101323.88;1714686;82;25857;-81
2020/12/01 11:50:17;;;;;;;84.65;43.02;;;;;;;2.46;75.08;101322.17;1690857;82;25995;-80
2020/12/01 11:52:45;;;;;;;73.47;38.70;;;;;;;2.50;75.32;101321.48;1666509;82;25842;-81
2020/12/01 11:55:13;;;;;;;66.82;35.13;;;;;;;2.54;75.27;101320.28;1704594;81;25861;-81
2020/12/01 11:57:40;;;;;;;67.00;37.95;;;;;;;2.55;74.95;101310.89;1729944;81;27549;-81
2020/12/01 12:00:09;;;;;;;61.25;34.33;;;;;;;2.55;74.95;101315.34;1622017;83;25838;-81
2020/12/01 12:02:38;;;;;;;69.92;38.28;;;;;;;2.54;74.78;101318.95;1676446;83;25927;-80
2020/12/01 12:05:06;;;;;;;68.65;36.17;;;;;;;2.52;74.78;101319.09;1677058;83;25947;-80
2020/12/01 12:07:34;;;;;;;72.30;38.53;;;;;;;2.54;74.94;101321.60;1704572;82;26667;-81
2020/12/01 12:10:01;;;;;;;64.17;33.55;;;;;;;2.57;74.97;101321.34;1670433;83;27581;-80
2020/12/01 12:12:29;;;;;;;68.33;34.83;;;;;;;2.61;74.77;101317.03;1657880;84;25818;-81
2020/12/01 12:14:56;;;;;;;74.32;40.65;;;;;;;2.64;74.64;101315.48;1688532;81;26200;-80
2020/12/01 12:17:24;;;;;;;71.20;40.23;;;;;;;2.64;74.47;101313.31;1738778;81;26076;-81
2020/12/01 12:19:51;;;;;;;68.52;36.85;;;;;;;2.65;74.35;101312.36;1658558;82;26618;-81
2020/12/01 12:22:19;;;;;;;60.12;33.58;;;;;;;2.68;74.55;101312.95;1665074;84;27481;-81
2020/12/01 12:24:46;;;;;;;63.50;35.48;;;;;;;2.70;74.15;101316.80;1693466;82;25807;-81
2020/12/01 12:27:15;;;;;;;58.83;31.45;;;;;;;2.68;74.16;101310.78;1692699;82;25785;-80
2020/12/01 12:29:43;;;;;;;50.45;27.27;;;;;;;2.68;74.21;101302.84;1646199;82;25946;-81
2020/12/01 12:32:11;;;;;;;57.85;29.45;;;;;;;2.69;73.85;101297.47;1673173;82;26074;-81
2020/12/01 12:34:39;;;;;;;56.68;30.08;;;;;;;2.72;73.95;101301.65;1666142;84;27274;-81